ETD001 OPIS-OMAA
Flight info
| Callsign | ETD001 |
|---|---|
| Flight time | N/A |
| Altitude | 32000 |
| Route | OPIS/10R N0442F280 KALM2C KALMI J139 HANGU/N0467F320 G325 PG G665 ASVIB N312 MOBET M324 PATAT/N0395F200 L519 IVOXI Q311 EMERU EMER3C OMAA/31L |
| Aircraft | A321/M-SDE2E3FGHIJ1RWXY/LB1 |
Departure
| Time | 2026-05-07 14:21 |
|---|---|
| Airport | Islamabad International Airport (OPIS) |
Arrival
| Time | N/A |
|---|---|
| Airport | Zayed International Airport (OMAA) |
| Time | Latitude | Longitude | Altitude | Speed | Heading |
|---|---|---|---|---|---|
| 2026-05-07 13:51 | 33.55399 | 72.83173 | 1771 ft | 0 kts | 325° |
| 2026-05-07 14:12 | 33.55398 | 72.83174 | 1773 ft | 2 kts | 325° |
| 2026-05-07 14:12 | 33.55377 | 72.83192 | 1773 ft | 4 kts | 325° |
| 2026-05-07 14:12 | 33.55360 | 72.83206 | 1770 ft | 4 kts | 324° |
| 2026-05-07 14:12 | 33.55340 | 72.83223 | 1770 ft | 4 kts | 304° |
| 2026-05-07 14:13 | 33.55337 | 72.83249 | 1770 ft | 4 kts | 245° |
| 2026-05-07 14:13 | 33.55349 | 72.83274 | 1772 ft | 4 kts | 237° |
| 2026-05-07 14:13 | 33.55361 | 72.83301 | 1771 ft | 2 kts | 253° |
| 2026-05-07 14:13 | 33.55361 | 72.83303 | 1771 ft | 0 kts | 253° |
| 2026-05-07 14:15 | 33.55359 | 72.83295 | 1772 ft | 7 kts | 249° |
| 2026-05-07 14:15 | 33.55313 | 72.83208 | 1770 ft | 14 kts | 235° |
| 2026-05-07 14:16 | 33.55256 | 72.83111 | 1769 ft | 18 kts | 234° |
| 2026-05-07 14:16 | 33.55180 | 72.82979 | 1771 ft | 20 kts | 235° |
| 2026-05-07 14:16 | 33.55160 | 72.82827 | 1769 ft | 19 kts | 282° |
| 2026-05-07 14:16 | 33.55184 | 72.82663 | 1770 ft | 20 kts | 279° |
| 2026-05-07 14:17 | 33.55208 | 72.82491 | 1770 ft | 21 kts | 280° |
| 2026-05-07 14:17 | 33.55227 | 72.82375 | 1767 ft | 22 kts | 280° |
| 2026-05-07 14:17 | 33.55265 | 72.82135 | 1765 ft | 23 kts | 281° |
| 2026-05-07 14:17 | 33.55295 | 72.81946 | 1764 ft | 24 kts | 280° |
| 2026-05-07 14:18 | 33.55324 | 72.81749 | 1767 ft | 24 kts | 280° |
| 2026-05-07 14:18 | 33.55344 | 72.81617 | 1766 ft | 24 kts | 280° |
| 2026-05-07 14:18 | 33.55374 | 72.81413 | 1762 ft | 25 kts | 280° |
| 2026-05-07 14:18 | 33.55404 | 72.81205 | 1761 ft | 25 kts | 281° |
| 2026-05-07 14:19 | 33.55438 | 72.80997 | 1762 ft | 26 kts | 281° |
| 2026-05-07 14:19 | 33.55469 | 72.80785 | 1763 ft | 26 kts | 276° |
| 2026-05-07 14:19 | 33.55360 | 72.80669 | 1765 ft | 23 kts | 188° |
| 2026-05-07 14:19 | 33.55205 | 72.80634 | 1764 ft | 23 kts | 191° |
| 2026-05-07 14:20 | 33.55097 | 72.80707 | 1763 ft | 18 kts | 95° |
| 2026-05-07 14:20 | 33.55067 | 72.80926 | 1762 ft | 48 kts | 101° |
| 2026-05-07 14:20 | 33.54971 | 72.81532 | 1764 ft | 100 kts | 100° |
| 2026-05-07 14:20 | 33.54811 | 72.82565 | 1765 ft | 153 kts | 101° |
| 2026-05-07 14:21 | 33.54587 | 72.83956 | 1918 ft | 175 kts | 103° |
| 2026-05-07 14:21 | 33.54337 | 72.85418 | 2150 ft | 188 kts | 101° |
| 2026-05-07 14:21 | 33.54090 | 72.87042 | 2272 ft | 207 kts | 102° |
| 2026-05-07 14:21 | 33.53827 | 72.88758 | 2649 ft | 215 kts | 102° |
| 2026-05-07 14:22 | 33.53277 | 72.91047 | 3391 ft | 212 kts | 123° |
| 2026-05-07 14:22 | 33.52630 | 72.91899 | 3746 ft | 211 kts | 146° |
| 2026-05-07 14:22 | 33.51196 | 72.92395 | 3991 ft | 228 kts | 182° |
| 2026-05-07 14:22 | 33.49586 | 72.91993 | 4283 ft | 243 kts | 195° |
| 2026-05-07 14:23 | 33.47933 | 72.91369 | 4572 ft | 257 kts | 197° |
| 2026-05-07 14:23 | 33.46181 | 72.90685 | 4927 ft | 268 kts | 197° |
| 2026-05-07 14:23 | 33.44448 | 72.90003 | 5746 ft | 258 kts | 200° |
| 2026-05-07 14:23 | 33.42921 | 72.89391 | 6908 ft | 230 kts | 200° |